createdAt,value
2022-10-13T00:00:41.610Z,10.75
2022-10-13T00:03:08.933Z,10.13
2022-10-13T00:05:35.993Z,10.55
2022-10-13T00:08:02.560Z,10.35
2022-10-13T00:10:30.455Z,10.45
2022-10-13T00:12:56.999Z,10.58
2022-10-13T00:15:25.890Z,10.51
2022-10-13T00:17:52.573Z,10.48
2022-10-13T00:20:19.339Z,10.56
2022-10-13T00:22:46.040Z,10.56
2022-10-13T00:25:12.597Z,10.38
2022-10-13T00:27:39.210Z,10.44
2022-10-13T00:30:06.361Z,10.41
2022-10-13T00:32:33.149Z,10.24
2022-10-13T00:34:59.807Z,10.37
2022-10-13T00:37:26.402Z,10.29
2022-10-13T00:39:53.120Z,10.27
2022-10-13T00:42:26.259Z,10.33
2022-10-13T00:45:11.955Z,10.39
2022-10-13T00:47:44.863Z,10.26
2022-10-13T00:50:16.167Z,10.32
2022-10-13T00:52:45.552Z,10.32
2022-10-13T00:55:16.746Z,10.34
2022-10-13T00:57:46.671Z,10.28
2022-10-13T01:00:13.694Z,10.25
2022-10-13T01:02:40.496Z,10.25
2022-10-13T01:05:07.918Z,10.07
2022-10-13T01:07:35.856Z,10.20
2022-10-13T01:10:03.459Z,10.21
2022-10-13T01:12:56.001Z,10.24
2022-10-13T01:15:37.817Z,10.12
2022-10-13T01:18:33.868Z,10.20
2022-10-13T01:21:39.316Z,10.17
2022-10-13T01:24:30.631Z,10.04
2022-10-13T01:27:05.140Z,10.12
2022-10-13T01:29:59.673Z,9.97
2022-10-13T01:32:45.473Z,10.06
2022-10-13T01:35:18.508Z,9.86
2022-10-13T01:37:53.693Z,10.01
2022-10-13T01:40:32.377Z,9.89
2022-10-13T01:43:03.488Z,9.94
2022-10-13T01:45:47.315Z,9.92
2022-10-13T01:48:16.767Z,9.90
2022-10-13T01:50:47.889Z,9.78
2022-10-13T01:53:18.009Z,9.86
2022-10-13T01:55:54.938Z,9.90
2022-10-13T01:58:23.199Z,9.79
2022-10-13T02:01:28.519Z,9.86
2022-10-13T02:04:17.856Z,9.81
2022-10-13T02:07:11.345Z,9.86
2022-10-13T02:09:57.313Z,9.86
2022-10-13T02:12:39.805Z,9.73
2022-10-13T02:15:12.045Z,9.77
2022-10-13T02:17:40.245Z,9.53
2022-10-13T02:20:08.325Z,9.65
2022-10-13T02:22:41.887Z,9.60
2022-10-13T02:25:09.125Z,9.57
2022-10-13T02:27:35.659Z,9.56
2022-10-13T02:30:02.266Z,9.56
2022-10-13T02:32:30.710Z,9.60
2022-10-13T02:34:57.499Z,9.56
2022-10-13T02:37:25.727Z,9.56
2022-10-13T02:39:52.808Z,9.59
2022-10-13T02:42:19.906Z,9.54
2022-10-13T02:44:46.590Z,9.51
2022-10-13T02:47:13.355Z,9.51
2022-10-13T02:49:39.911Z,9.21
2022-10-13T02:52:07.752Z,9.45
2022-10-13T02:54:41.798Z,9.45
2022-10-13T02:57:08.300Z,9.30
2022-10-13T02:59:34.917Z,9.42
2022-10-13T03:02:01.475Z,9.28
2022-10-13T03:04:28.198Z,9.22
2022-10-13T03:06:59.083Z,9.43
2022-10-13T03:09:25.763Z,9.27
2022-10-13T03:11:52.380Z,9.37
2022-10-13T03:14:19.122Z,9.34
2022-10-13T03:16:45.667Z,9.32
2022-10-13T03:19:12.997Z,9.30
2022-10-13T03:21:39.808Z,9.31
2022-10-13T03:24:06.646Z,9.22
2022-10-13T03:26:34.985Z,9.33
2022-10-13T03:29:01.665Z,9.21
2022-10-13T03:31:28.230Z,9.00
2022-10-13T03:34:02.076Z,9.26
2022-10-13T03:36:28.601Z,9.15
2022-10-13T03:38:55.145Z,9.12
2022-10-13T03:41:22.503Z,9.20
2022-10-13T03:43:51.908Z,9.23
2022-10-13T03:46:19.141Z,9.17
2022-10-13T03:48:47.717Z,9.13
2022-10-13T03:51:17.266Z,9.15
2022-10-13T03:53:49.504Z,9.04
2022-10-13T03:56:19.682Z,8.93
2022-10-13T03:58:56.606Z,8.98
2022-10-13T04:01:25.665Z,9.06
2022-10-13T04:03:53.970Z,9.00
2022-10-13T04:06:20.725Z,8.92
2022-10-13T04:08:47.334Z,8.84
2022-10-13T04:11:15.345Z,9.03
2022-10-13T04:13:43.390Z,9.01
2022-10-13T04:16:21.407Z,8.81
2022-10-13T04:18:53.294Z,9.04
2022-10-13T04:21:20.262Z,9.04
2022-10-13T04:23:47.099Z,8.92
2022-10-13T04:26:20.351Z,9.05
2022-10-13T04:28:48.625Z,9.06
2022-10-13T04:31:15.230Z,8.97
2022-10-13T04:33:41.794Z,8.87
2022-10-13T04:36:11.556Z,9.01
2022-10-13T04:38:38.690Z,8.91
2022-10-13T04:41:06.542Z,9.09
2022-10-13T04:43:33.800Z,9.09
2022-10-13T04:46:13.956Z,9.29
2022-10-13T04:48:41.434Z,9.28
2022-10-13T04:51:13.676Z,9.35
2022-10-13T04:53:44.218Z,9.33
2022-10-13T04:56:15.860Z,9.44
2022-10-13T04:58:44.243Z,9.47
2022-10-13T05:01:21.538Z,9.54
2022-10-13T05:03:53.327Z,9.54
2022-10-13T05:06:23.235Z,9.42
2022-10-13T05:08:56.066Z,9.56
2022-10-13T05:11:24.484Z,9.57
2022-10-13T05:13:51.227Z,9.63
2022-10-13T05:16:19.185Z,9.71
2022-10-13T05:18:45.828Z,9.65
2022-10-13T05:21:27.646Z,9.85
2022-10-13T05:23:56.046Z,9.82
2022-10-13T05:26:28.984Z,9.91
2022-10-13T05:29:00.157Z,9.94
2022-10-13T05:31:31.767Z,9.99
2022-10-13T05:33:59.826Z,10.02
2022-10-13T05:36:34.660Z,10.05
2022-10-13T05:39:04.557Z,9.86
2022-10-13T05:41:31.089Z,9.97
2022-10-13T05:44:01.519Z,10.12
2022-10-13T05:46:28.465Z,9.86
2022-10-13T05:48:55.151Z,10.17
2022-10-13T05:51:26.795Z,10.21
2022-10-13T05:54:00.904Z,10.14
2022-10-13T05:56:32.568Z,10.21
2022-10-13T05:59:02.209Z,10.12
2022-10-13T06:01:32.803Z,10.19
2022-10-13T06:04:04.686Z,10.21
2022-10-13T06:06:31.793Z,10.25
2022-10-13T06:08:59.918Z,10.31
2022-10-13T06:11:32.328Z,10.36
2022-10-13T06:13:58.883Z,10.19
2022-10-13T06:16:25.703Z,10.18
2022-10-13T06:18:52.785Z,10.39
2022-10-13T06:21:19.295Z,10.28
2022-10-13T06:23:45.963Z,10.44
2022-10-13T06:26:12.498Z,10.19
2022-10-13T06:28:39.150Z,10.36
2022-10-13T06:31:06.634Z,10.44
2022-10-13T06:33:33.698Z,10.60
2022-10-13T06:36:04.965Z,10.42
2022-10-13T06:38:32.739Z,10.10
2022-10-13T06:41:04.671Z,10.70
2022-10-13T06:43:38.922Z,10.73
2022-10-13T06:46:09.937Z,10.47
2022-10-13T06:48:36.674Z,10.76
2022-10-13T06:51:08.273Z,10.83
2022-10-13T06:53:35.928Z,10.85
2022-10-13T06:56:05.186Z,10.75
2022-10-13T06:58:31.914Z,10.92
2022-10-13T07:00:58.445Z,10.87
2022-10-13T07:03:26.019Z,10.85
2022-10-13T07:05:53.298Z,11.08
2022-10-13T07:08:20.726Z,11.08
2022-10-13T07:10:47.414Z,11.10
2022-10-13T07:13:13.995Z,11.12
2022-10-13T07:15:40.964Z,11.04
2022-10-13T07:18:07.949Z,11.16
2022-10-13T07:20:34.963Z,11.20
2022-10-13T07:23:02.029Z,11.23
2022-10-13T07:25:28.699Z,11.26
2022-10-13T07:27:55.521Z,11.29
2022-10-13T07:30:22.461Z,11.32
2022-10-13T07:32:49.121Z,11.38
2022-10-13T07:35:15.906Z,11.40
2022-10-13T07:37:42.412Z,11.44
2022-10-13T07:40:09.546Z,11.37
2022-10-13T07:42:36.023Z,11.52
2022-10-13T07:45:02.894Z,11.55
2022-10-13T07:47:30.361Z,11.57
2022-10-13T07:49:56.928Z,11.60
2022-10-13T07:52:23.492Z,11.62
2022-10-13T07:54:50.626Z,11.67
2022-10-13T07:57:17.443Z,11.69
2022-10-13T07:59:44.147Z,11.74
2022-10-13T08:02:12.983Z,11.76
2022-10-13T08:04:39.713Z,11.71
2022-10-13T08:07:06.664Z,11.84
2022-10-13T08:09:33.394Z,11.86
2022-10-13T08:12:01.707Z,11.90
2022-10-13T08:14:29.432Z,11.84
2022-10-13T08:16:57.130Z,11.95
2022-10-13T08:19:26.351Z,11.99
2022-10-13T08:21:58.311Z,12.06
2022-10-13T08:24:26.372Z,12.10
2022-10-13T08:26:53.278Z,12.13
2022-10-13T08:29:22.539Z,12.18
2022-10-13T08:31:50.579Z,12.22
2022-10-13T08:34:17.254Z,12.23
2022-10-13T08:36:43.875Z,12.30
2022-10-13T08:39:10.996Z,12.30
2022-10-13T08:41:41.006Z,12.29
2022-10-13T08:47:27.253Z,12.46
2022-10-13T08:49:59.998Z,12.49
2022-10-13T08:52:29.505Z,12.54
2022-10-13T08:54:57.165Z,12.55
2022-10-13T08:57:24.285Z,12.61
2022-10-13T08:59:52.422Z,12.59
2022-10-13T09:02:26.440Z,12.66
2022-10-13T09:04:53.762Z,12.67
2022-10-13T09:07:40.636Z,12.72
2022-10-13T09:10:09.531Z,12.76
2022-10-13T09:12:36.119Z,12.80
2022-10-13T09:15:09.848Z,12.61
2022-10-13T09:17:39.455Z,12.84
2022-10-13T09:20:22.684Z,12.87
2022-10-13T09:23:19.086Z,12.89
2022-10-13T09:25:51.218Z,12.94
2022-10-13T09:28:25.739Z,12.97
2022-10-13T09:31:23.149Z,13.01
2022-10-13T09:34:30.264Z,13.05
2022-10-13T09:37:06.007Z,13.09
2022-10-13T09:39:34.110Z,13.12
2022-10-13T09:42:33.194Z,13.18
2022-10-13T09:45:13.280Z,13.14
2022-10-13T09:47:40.315Z,13.26
2022-10-13T09:50:18.797Z,13.30
2022-10-13T09:52:47.544Z,13.37
2022-10-13T09:55:35.948Z,13.43
2022-10-13T09:58:28.320Z,13.48
2022-10-13T10:00:57.533Z,13.52
2022-10-13T10:03:37.328Z,13.47
2022-10-13T10:06:07.670Z,13.60
2022-10-13T10:09:03.176Z,13.59
2022-10-13T10:11:35.251Z,13.67
2022-10-13T10:14:19.428Z,13.69
2022-10-13T10:16:57.266Z,13.73
2022-10-13T10:20:02.155Z,13.78
2022-10-13T10:22:43.658Z,13.81
2022-10-13T10:25:16.849Z,13.83
2022-10-13T10:27:59.966Z,13.75
2022-10-13T10:30:31.185Z,13.81
2022-10-13T10:33:13.491Z,13.87
2022-10-13T10:35:50.352Z,13.90
2022-10-13T10:38:43.255Z,13.95
2022-10-13T10:41:37.735Z,13.97
2022-10-13T10:44:14.836Z,14.00
2022-10-13T10:46:48.642Z,13.98
2022-10-13T10:49:36.605Z,14.01
2022-10-13T10:52:08.429Z,14.06
2022-10-13T10:54:55.930Z,13.87
2022-10-13T10:58:04.246Z,14.12
2022-10-13T11:00:41.514Z,14.15
2022-10-13T11:03:35.022Z,14.08
2022-10-13T11:06:20.959Z,14.23
2022-10-13T11:08:49.271Z,14.27
2022-10-13T11:11:26.654Z,14.31
2022-10-13T11:13:54.502Z,14.34
2022-10-13T11:17:10.709Z,14.36
2022-10-13T11:19:40.619Z,14.39
2022-10-13T11:22:07.057Z,14.44
2022-10-13T11:24:37.338Z,14.49
2022-10-13T11:27:11.445Z,14.48
2022-10-13T11:29:47.223Z,14.52
2022-10-13T11:32:26.086Z,14.58
2022-10-13T11:35:18.506Z,14.63
2022-10-13T11:38:15.291Z,14.61
2022-10-13T11:41:19.641Z,14.60
2022-10-13T11:43:57.735Z,14.73
2022-10-13T11:46:46.275Z,14.76
2022-10-13T11:49:24.209Z,14.81
2022-10-13T11:52:06.621Z,14.86
2022-10-13T11:54:40.352Z,14.88
2022-10-13T11:57:27.305Z,14.90
2022-10-13T11:59:56.068Z,14.95
2022-10-13T12:02:28.477Z,14.98
2022-10-13T12:05:23.605Z,15.00
2022-10-13T12:07:53.099Z,14.92
2022-10-13T12:10:28.184Z,15.03
2022-10-13T12:12:54.729Z,15.05
2022-10-13T12:15:33.992Z,15.09
2022-10-13T12:18:01.257Z,15.08
2022-10-13T12:20:32.629Z,15.10
2022-10-13T12:25:29.589Z,15.08
2022-10-13T12:28:00.760Z,15.08
2022-10-13T12:30:36.949Z,15.12
2022-10-13T12:33:17.585Z,15.08
2022-10-13T12:35:44.124Z,15.13
2022-10-13T12:38:19.759Z,15.12
2022-10-13T12:40:49.809Z,15.15
2022-10-13T12:43:20.233Z,15.17
2022-10-13T12:45:48.792Z,15.21
2022-10-13T12:48:35.242Z,15.20
2022-10-13T12:51:18.872Z,15.22
2022-10-13T12:53:46.521Z,15.17
2022-10-13T12:56:27.619Z,15.22
2022-10-13T12:58:55.138Z,15.24
2022-10-13T13:01:31.322Z,15.25
2022-10-13T13:04:15.044Z,15.26
2022-10-13T13:06:52.864Z,15.30
2022-10-13T13:09:24.294Z,15.31
2022-10-13T13:12:12.511Z,15.30
2022-10-13T13:14:43.972Z,15.35
2022-10-13T13:17:17.553Z,15.36
2022-10-13T13:19:55.514Z,15.27
2022-10-13T13:22:22.444Z,15.40
2022-10-13T13:24:52.432Z,15.42
2022-10-13T13:27:24.320Z,15.29
2022-10-13T13:29:51.389Z,15.31
2022-10-13T13:32:20.473Z,15.40
2022-10-13T13:34:47.207Z,15.40
2022-10-13T13:37:31.531Z,15.45
2022-10-13T13:39:58.729Z,15.48
2022-10-13T13:42:27.208Z,15.50
2022-10-13T13:44:53.852Z,15.48
2022-10-13T13:47:22.936Z,15.50
2022-10-13T13:49:51.965Z,15.55
2022-10-13T13:52:19.293Z,15.52
2022-10-13T13:54:46.276Z,15.57
2022-10-13T13:57:15.978Z,15.49
2022-10-13T13:59:43.319Z,15.59
2022-10-13T14:02:20.159Z,15.60
2022-10-13T14:04:47.390Z,15.59
2022-10-13T14:07:14.235Z,15.56
2022-10-13T14:09:41.571Z,15.62
2022-10-13T14:12:09.858Z,15.66
2022-10-13T14:14:36.419Z,15.60
2022-10-13T14:17:04.277Z,15.67
2022-10-13T14:19:32.224Z,15.68
2022-10-13T14:21:59.579Z,15.63
2022-10-13T14:24:26.106Z,15.61
2022-10-13T14:26:52.664Z,15.58
2022-10-13T14:29:19.252Z,15.58
2022-10-13T14:31:45.902Z,15.47
2022-10-13T14:34:12.410Z,15.55
2022-10-13T14:36:40.048Z,15.57
2022-10-13T14:39:06.617Z,15.57
2022-10-13T14:41:33.320Z,15.56
2022-10-13T14:43:59.872Z,15.59
2022-10-13T14:46:26.470Z,15.62
2022-10-13T14:48:54.847Z,15.68
2022-10-13T14:51:21.391Z,15.68
2022-10-13T14:53:47.968Z,15.65
2022-10-13T14:56:18.793Z,15.70
2022-10-13T14:58:50.798Z,15.71
2022-10-13T15:01:18.257Z,15.66
2022-10-13T15:03:45.169Z,15.71
2022-10-13T15:06:20.766Z,15.74
2022-10-13T15:08:48.655Z,15.74
2022-10-13T15:11:16.140Z,15.76
2022-10-13T15:13:42.786Z,15.71
2022-10-13T15:16:16.894Z,15.78
2022-10-13T15:18:43.620Z,15.79
2022-10-13T15:21:10.234Z,15.73
2022-10-13T15:23:36.873Z,15.78
2022-10-13T15:26:04.475Z,15.80
2022-10-13T15:28:36.158Z,15.81
2022-10-13T15:31:03.005Z,15.75
2022-10-13T15:33:29.772Z,15.77
2022-10-13T15:35:56.923Z,15.82
2022-10-13T15:38:23.973Z,15.83
2022-10-13T15:40:51.031Z,15.77
2022-10-13T15:43:18.066Z,15.83
2022-10-13T15:45:55.540Z,15.83
2022-10-13T15:48:22.433Z,15.79
2022-10-13T15:50:49.242Z,15.83
2022-10-13T15:53:15.925Z,15.82
2022-10-13T15:55:42.819Z,15.82
2022-10-13T15:58:13.679Z,15.84
2022-10-13T16:00:41.874Z,15.79
2022-10-13T16:03:15.341Z,15.85
2022-10-13T16:05:43.658Z,15.84
2022-10-13T16:08:10.580Z,15.77
2022-10-13T16:10:43.589Z,15.79
2022-10-13T16:13:14.469Z,15.81
2022-10-13T16:15:42.337Z,15.75
2022-10-13T16:18:09.304Z,15.73
2022-10-13T16:20:37.891Z,15.74
2022-10-13T16:23:05.093Z,15.64
2022-10-13T16:25:32.067Z,15.68
2022-10-13T16:28:01.867Z,15.65
2022-10-13T16:30:30.294Z,15.61
2022-10-13T16:32:57.777Z,15.58
2022-10-13T16:35:24.411Z,15.54
2022-10-13T16:37:50.976Z,15.54
2022-10-13T16:40:17.539Z,15.45
2022-10-13T16:42:44.958Z,15.48
2022-10-13T16:45:11.746Z,15.48
2022-10-13T16:47:38.390Z,15.47
2022-10-13T16:50:09.405Z,15.48
2022-10-13T16:52:37.349Z,15.47
2022-10-13T16:55:05.586Z,15.47
2022-10-13T16:57:32.713Z,15.43
2022-10-13T16:59:59.465Z,15.44
2022-10-13T17:02:28.580Z,15.41
2022-10-13T17:04:55.235Z,15.41
2022-10-13T17:07:22.099Z,15.40
2022-10-13T17:09:50.023Z,15.31
2022-10-13T17:12:16.640Z,15.34
2022-10-13T17:14:43.413Z,15.31
2022-10-13T17:17:10.211Z,15.53
2022-10-13T17:19:37.030Z,15.45
2022-10-13T17:22:03.723Z,15.30
2022-10-13T17:24:30.966Z,15.26
2022-10-13T17:26:57.597Z,15.31
2022-10-13T17:29:24.175Z,15.33
2022-10-13T17:31:53.337Z,15.23
2022-10-13T17:34:21.822Z,15.19
2022-10-13T17:36:51.197Z,15.29
2022-10-13T17:39:18.024Z,15.28
2022-10-13T17:41:44.762Z,15.20
2022-10-13T17:44:11.761Z,15.21
2022-10-13T17:46:39.780Z,15.20
2022-10-13T17:49:09.998Z,15.23
2022-10-13T17:51:36.762Z,15.21
2022-10-13T17:54:03.977Z,15.15
2022-10-13T17:56:30.719Z,15.10
2022-10-13T17:58:57.609Z,15.16
2022-10-13T18:01:33.975Z,14.96
2022-10-13T18:04:05.667Z,15.17
2022-10-13T18:06:38.578Z,15.18
2022-10-13T18:09:17.381Z,15.16
2022-10-13T18:11:49.830Z,15.03
2022-10-13T18:14:19.118Z,14.77
2022-10-13T18:16:49.276Z,15.11
2022-10-13T18:19:16.395Z,14.87
2022-10-13T18:21:43.263Z,15.08
2022-10-13T18:24:11.739Z,14.70
2022-10-13T18:26:38.594Z,14.94
2022-10-13T18:29:07.451Z,15.01
2022-10-13T18:31:37.070Z,14.93
2022-10-13T18:34:06.764Z,14.90
2022-10-13T18:36:42.611Z,14.84
2022-10-13T18:39:20.699Z,14.88
2022-10-13T18:41:50.634Z,14.78
2022-10-13T18:44:20.204Z,14.49
2022-10-13T18:46:52.670Z,14.38
2022-10-13T18:49:23.116Z,14.46
2022-10-13T18:51:51.526Z,14.39
2022-10-13T18:54:18.150Z,14.64
2022-10-13T18:57:01.898Z,14.62
2022-10-13T18:59:31.411Z,14.58
2022-10-13T19:02:06.006Z,14.49
2022-10-13T19:04:32.822Z,14.57
2022-10-13T19:07:05.849Z,14.44
2022-10-13T19:09:32.840Z,14.23
2022-10-13T19:11:59.537Z,14.47
2022-10-13T19:14:27.474Z,14.43
2022-10-13T19:17:00.854Z,14.34
2022-10-13T19:19:29.544Z,14.37
2022-10-13T19:21:57.712Z,14.08
2022-10-13T19:24:25.618Z,14.01
2022-10-13T19:26:52.664Z,14.17
2022-10-13T19:29:19.432Z,13.93
2022-10-13T19:31:46.230Z,13.78
2022-10-13T19:34:13.730Z,14.10
2022-10-13T19:36:43.657Z,13.73
2022-10-13T19:39:22.206Z,13.69
2022-10-13T19:41:51.629Z,13.74
2022-10-13T19:44:24.257Z,13.68
2022-10-13T19:46:58.700Z,13.65
2022-10-13T19:49:36.027Z,13.91
2022-10-13T19:52:14.651Z,13.31
2022-10-13T19:54:49.680Z,13.91
2022-10-13T19:57:30.638Z,13.67
2022-10-13T20:00:03.420Z,13.84
2022-10-13T20:02:45.210Z,13.24
2022-10-13T20:05:14.490Z,13.75
2022-10-13T20:07:45.687Z,13.60
2022-10-13T20:10:22.575Z,13.76
2022-10-13T20:12:52.345Z,13.67
2022-10-13T20:15:20.536Z,13.38
2022-10-13T20:17:53.448Z,13.69
2022-10-13T20:20:22.505Z,13.42
2022-10-13T20:22:52.618Z,13.48
2022-10-13T20:25:20.104Z,13.65
2022-10-13T20:28:00.717Z,13.02
2022-10-13T20:30:30.634Z,13.63
2022-10-13T20:32:57.589Z,13.60
2022-10-13T20:35:27.669Z,13.58
2022-10-13T20:37:57.665Z,13.52
2022-10-13T20:40:27.851Z,13.60
2022-10-13T20:43:05.874Z,13.61
2022-10-13T20:46:38.658Z,13.58
2022-10-13T20:49:09.880Z,13.49
2022-10-13T20:51:46.581Z,13.57
2022-10-13T21:00:28.791Z,13.48
2022-10-13T21:03:08.977Z,13.17
2022-10-13T21:06:01.837Z,13.25
2022-10-13T21:09:30.084Z,13.38
2022-10-13T21:11:51.214Z,13.40
2022-10-13T21:14:21.627Z,13.35
2022-10-13T21:16:48.396Z,13.30
2022-10-13T21:19:36.663Z,13.30
2022-10-13T21:22:17.903Z,13.37
2022-10-13T21:27:38.292Z,13.41
2022-10-13T21:30:15.780Z,13.22
2022-10-13T21:32:42.382Z,13.35
2022-10-13T21:35:09.689Z,13.32
2022-10-13T21:37:37.739Z,13.49
2022-10-13T21:40:09.360Z,13.52
2022-10-13T21:42:36.076Z,13.52
2022-10-13T21:45:03.297Z,13.49
2022-10-13T21:47:34.806Z,13.50
2022-10-13T21:50:08.541Z,13.27
2022-10-13T21:52:39.025Z,13.50
2022-10-13T21:55:10.019Z,13.47
2022-10-13T21:57:37.134Z,13.49
2022-10-13T22:00:05.776Z,13.52
2022-10-13T22:02:39.379Z,13.46
2022-10-13T22:05:10.563Z,13.49
2022-10-13T22:07:37.361Z,13.39
2022-10-13T22:10:04.514Z,13.46
2022-10-13T22:12:31.378Z,13.45
2022-10-13T22:14:58.091Z,13.20
2022-10-13T22:17:24.934Z,13.48
2022-10-13T22:19:51.652Z,13.42
2022-10-13T22:22:21.404Z,13.39
2022-10-13T22:24:50.632Z,13.07
2022-10-13T22:27:17.327Z,13.28
2022-10-13T22:29:43.866Z,13.22
2022-10-13T22:32:10.786Z,13.14
2022-10-13T22:34:37.457Z,13.13
2022-10-13T22:37:04.209Z,12.89
2022-10-13T22:39:31.200Z,12.98
2022-10-13T22:42:08.171Z,12.99
2022-10-13T22:44:35.410Z,12.94
2022-10-13T22:47:03.521Z,12.64
2022-10-13T22:49:37.327Z,12.83
2022-10-13T22:52:04.333Z,12.84
2022-10-13T22:54:32.495Z,12.80
2022-10-13T22:56:59.062Z,12.78
2022-10-13T22:59:27.368Z,12.78
2022-10-13T23:01:53.958Z,12.72
2022-10-13T23:04:20.542Z,12.71
2022-10-13T23:06:47.340Z,12.65
2022-10-13T23:09:14.357Z,12.69
2022-10-13T23:11:44.023Z,12.65
2022-10-13T23:14:17.862Z,12.59
2022-10-13T23:16:45.344Z,12.55
2022-10-13T23:19:11.891Z,12.66
2022-10-13T23:21:38.481Z,12.63
2022-10-13T23:24:06.742Z,12.66
2022-10-13T23:26:34.707Z,12.67
2022-10-13T23:29:01.729Z,12.64
2022-10-13T23:31:28.881Z,12.70
2022-10-13T23:33:55.930Z,12.61
2022-10-13T23:36:25.303Z,12.68
2022-10-13T23:39:06.738Z,12.71
2022-10-13T23:41:34.171Z,12.76
2022-10-13T23:44:00.964Z,12.74
2022-10-13T23:46:27.811Z,12.74
2022-10-13T23:48:54.583Z,12.74
2022-10-13T23:51:24.120Z,12.76
2022-10-13T23:53:51.396Z,12.83
2022-10-13T23:56:18.774Z,12.82
2022-10-13T23:58:45.606Z,12.93
